Terminal Aerodrome Forecast
Issued by NWS Upton, NY

Home | Current Version | Previous Version | Text Only | Print | Product List | Glossary On
Versions: 1 2 3 4 5 6 7 8 9 10 11 12 13 14 15 16 17 18 19 20 21 22 23 24 25 26 27 28 29 30 31 32
877
FTUS41 KOKX 250232 AAA
TAFEWR
TAF AMD
KEWR 250232Z 2503/2606 17007KT P6SM FEW005 SCT040
      TEMPO 2505/2508 BKN004
     FM250800 17006KT P6SM OVC004
     FM251000 16005KT 2SM BR OVC004
     FM251600 15010KT 6SM BR OVC007
     FM252200 17012KT 6SM -SHRA BR BKN007 PROB30 2523/2601 5SM -TSRA
      BKN007CB
     FM260100 29015G23KT P6SM SCT025 SCT050 SCT070=

USA.gov is the U.S. government's official web portal to all federal, state and local government web resources and services.